createdAt,value
2023-01-22T00:00:17.000Z,0.53
2023-01-22T00:01:17.000Z,0.60
2023-01-22T00:02:17.000Z,0.58
2023-01-22T00:03:17.000Z,0.58
2023-01-22T00:04:17.000Z,0.57
2023-01-22T00:05:17.000Z,0.58
2023-01-22T00:06:17.000Z,0.61
2023-01-22T00:07:17.000Z,0.57
2023-01-22T00:08:17.000Z,0.60
2023-01-22T00:09:17.000Z,0.53
2023-01-22T00:10:17.000Z,0.58
2023-01-22T00:11:17.000Z,0.60
2023-01-22T00:12:17.000Z,0.57
2023-01-22T00:13:17.000Z,0.53
2023-01-22T00:14:17.000Z,0.57
2023-01-22T00:15:17.000Z,0.53
2023-01-22T00:16:17.000Z,0.53
2023-01-22T00:17:17.000Z,0.53
2023-01-22T00:18:17.000Z,0.57
2023-01-22T00:19:17.000Z,0.58
2023-01-22T00:20:17.000Z,0.58
2023-01-22T00:21:17.000Z,0.53
2023-01-22T00:22:17.000Z,0.57
2023-01-22T00:23:17.000Z,0.57
2023-01-22T00:24:17.000Z,0.52
2023-01-22T00:25:17.000Z,0.52
2023-01-22T00:26:17.000Z,0.53
2023-01-22T00:27:17.000Z,0.57
2023-01-22T00:28:17.000Z,0.57
2023-01-22T00:29:17.000Z,0.52
2023-01-22T00:30:17.000Z,0.52
2023-01-22T00:31:17.000Z,0.57
2023-01-22T00:32:17.000Z,0.53
2023-01-22T00:33:17.000Z,0.57
2023-01-22T00:34:17.000Z,0.58
2023-01-22T00:35:17.000Z,0.52
2023-01-22T00:36:17.000Z,0.57
2023-01-22T00:37:17.000Z,0.57
2023-01-22T00:38:17.000Z,0.53
2023-01-22T00:39:17.000Z,0.52
2023-01-22T00:40:17.000Z,0.60
2023-01-22T00:41:17.000Z,0.53
2023-01-22T00:42:18.000Z,0.53
2023-01-22T00:43:18.000Z,0.57
2023-01-22T00:44:18.000Z,0.52
2023-01-22T00:45:18.000Z,0.57
2023-01-22T00:46:18.000Z,0.53
2023-01-22T00:47:18.000Z,0.51
2023-01-22T00:48:18.000Z,0.57
2023-01-22T00:49:18.000Z,0.57
2023-01-22T00:50:18.000Z,0.52
2023-01-22T00:51:18.000Z,0.51
2023-01-22T00:52:18.000Z,0.57
2023-01-22T00:53:18.000Z,0.57
2023-01-22T00:54:18.000Z,0.53
2023-01-22T00:55:18.000Z,0.53
2023-01-22T00:56:18.000Z,0.52
2023-01-22T00:57:18.000Z,0.53
2023-01-22T00:58:18.000Z,0.52
2023-01-22T00:59:18.000Z,0.57
2023-01-22T01:00:18.000Z,0.52
2023-01-22T01:01:18.000Z,0.52
2023-01-22T01:02:18.000Z,0.52
2023-01-22T01:03:18.000Z,0.53
2023-01-22T01:04:18.000Z,0.58
2023-01-22T01:05:18.000Z,0.53
2023-01-22T01:06:18.000Z,0.53
2023-01-22T01:07:18.000Z,0.53
2023-01-22T01:08:18.000Z,0.57
2023-01-22T01:09:18.000Z,0.58
2023-01-22T01:10:18.000Z,0.52
2023-01-22T01:11:18.000Z,0.51
2023-01-22T01:12:18.000Z,0.49
2023-01-22T01:13:18.000Z,0.52
2023-01-22T01:14:18.000Z,0.53
2023-01-22T01:15:18.000Z,0.51
2023-01-22T01:16:18.000Z,0.52
2023-01-22T01:17:18.000Z,0.52
2023-01-22T01:18:18.000Z,0.53
2023-01-22T01:19:18.000Z,0.49
2023-01-22T01:20:18.000Z,0.52
2023-01-22T01:21:18.000Z,0.53
2023-01-22T01:22:18.000Z,0.53
2023-01-22T01:23:18.000Z,0.51
2023-01-22T01:24:18.000Z,0.52
2023-01-22T01:25:18.000Z,0.51
2023-01-22T01:26:18.000Z,0.51
2023-01-22T01:27:18.000Z,0.52
2023-01-22T01:28:18.000Z,0.52
2023-01-22T01:29:18.000Z,0.52
2023-01-22T01:30:18.000Z,0.53
2023-01-22T01:31:18.000Z,0.51
2023-01-22T01:32:18.000Z,0.51
2023-01-22T01:33:18.000Z,0.57
2023-01-22T01:34:18.000Z,0.51
2023-01-22T01:35:18.000Z,0.48
2023-01-22T01:36:18.000Z,0.49
2023-01-22T01:37:18.000Z,0.51
2023-01-22T01:38:18.000Z,0.48
2023-01-22T01:39:18.000Z,0.52
2023-01-22T01:40:18.000Z,0.51
2023-01-22T01:41:18.000Z,0.48
2023-01-22T01:42:18.000Z,0.49
2023-01-22T01:43:18.000Z,0.51
2023-01-22T01:44:18.000Z,0.49
2023-01-22T01:45:18.000Z,0.49
2023-01-22T01:46:18.000Z,0.51
2023-01-22T01:47:18.000Z,0.52
2023-01-22T01:48:18.000Z,0.49
2023-01-22T01:49:18.000Z,0.48
2023-01-22T01:50:18.000Z,0.48
2023-01-22T01:51:18.000Z,0.49
2023-01-22T01:52:18.000Z,0.49
2023-01-22T01:53:18.000Z,0.45
2023-01-22T01:54:18.000Z,0.46
2023-01-22T01:55:18.000Z,0.46
2023-01-22T01:56:18.000Z,0.46
2023-01-22T01:57:18.000Z,0.51
2023-01-22T01:58:18.000Z,0.46
2023-01-22T01:59:18.000Z,0.49
2023-01-22T02:00:18.000Z,0.49
2023-01-22T02:01:18.000Z,0.49
2023-01-22T02:02:18.000Z,0.46
2023-01-22T02:03:18.000Z,0.46
2023-01-22T02:04:18.000Z,0.46
2023-01-22T02:05:18.000Z,0.49
2023-01-22T02:06:18.000Z,0.49
2023-01-22T02:07:18.000Z,0.48
2023-01-22T02:08:18.000Z,0.46
2023-01-22T02:09:18.000Z,0.46
2023-01-22T02:10:18.000Z,0.48
2023-01-22T02:11:18.000Z,0.48
2023-01-22T02:12:18.000Z,0.45
2023-01-22T02:13:18.000Z,0.48
2023-01-22T02:14:18.000Z,0.51
2023-01-22T02:15:18.000Z,0.49
2023-01-22T02:16:19.000Z,0.48
2023-01-22T02:17:19.000Z,0.51
2023-01-22T02:18:19.000Z,0.51
2023-01-22T02:19:19.000Z,0.48
2023-01-22T02:20:19.000Z,0.51
2023-01-22T02:21:19.000Z,0.52
2023-01-22T02:22:19.000Z,0.51
2023-01-22T02:23:19.000Z,0.49
2023-01-22T02:24:19.000Z,0.52
2023-01-22T02:25:19.000Z,0.46
2023-01-22T02:26:19.000Z,0.51
2023-01-22T02:27:19.000Z,0.51
2023-01-22T02:28:19.000Z,0.49
2023-01-22T02:29:19.000Z,0.51
2023-01-22T02:30:19.000Z,0.52
2023-01-22T02:31:19.000Z,0.49
2023-01-22T02:32:19.000Z,0.49
2023-01-22T02:33:19.000Z,0.51
2023-01-22T02:34:19.000Z,0.51
2023-01-22T02:35:19.000Z,0.51
2023-01-22T02:36:19.000Z,0.48
2023-01-22T02:37:19.000Z,0.52
2023-01-22T02:38:19.000Z,0.51
2023-01-22T02:39:19.000Z,0.49
2023-01-22T02:40:19.000Z,0.49
2023-01-22T02:41:19.000Z,0.51
2023-01-22T02:42:19.000Z,0.51
2023-01-22T02:43:19.000Z,0.48
2023-01-22T02:44:19.000Z,0.52
2023-01-22T02:45:19.000Z,0.53
2023-01-22T02:46:19.000Z,0.53
2023-01-22T02:47:19.000Z,0.52
2023-01-22T02:48:19.000Z,0.52
2023-01-22T02:49:19.000Z,0.49
2023-01-22T02:50:19.000Z,0.57
2023-01-22T02:51:19.000Z,0.51
2023-01-22T02:52:19.000Z,0.57
2023-01-22T02:53:19.000Z,0.53
2023-01-22T02:54:19.000Z,0.51
2023-01-22T02:55:19.000Z,0.53
2023-01-22T02:56:19.000Z,0.51
2023-01-22T02:57:19.000Z,0.57
2023-01-22T02:58:19.000Z,0.53
2023-01-22T02:59:19.000Z,0.58
2023-01-22T03:00:19.000Z,0.57
2023-01-22T03:01:19.000Z,0.53
2023-01-22T03:02:19.000Z,0.53
2023-01-22T03:03:19.000Z,0.53
2023-01-22T03:04:19.000Z,0.57
2023-01-22T03:05:19.000Z,0.53
2023-01-22T03:06:19.000Z,0.53
2023-01-22T03:07:19.000Z,0.57
2023-01-22T03:08:19.000Z,0.58
2023-01-22T03:09:19.000Z,0.52
2023-01-22T03:10:19.000Z,0.57
2023-01-22T03:11:19.000Z,0.53
2023-01-22T03:12:19.000Z,0.53
2023-01-22T03:13:19.000Z,0.58
2023-01-22T03:14:19.000Z,0.57
2023-01-22T03:15:19.000Z,0.57
2023-01-22T03:16:19.000Z,0.60
2023-01-22T03:17:19.000Z,0.58
2023-01-22T03:18:19.000Z,0.57
2023-01-22T03:19:19.000Z,0.58
2023-01-22T03:20:19.000Z,0.60
2023-01-22T03:21:19.000Z,0.58
2023-01-22T03:22:19.000Z,0.60
2023-01-22T03:23:19.000Z,0.58
2023-01-22T03:24:19.000Z,0.58
2023-01-22T03:25:19.000Z,0.58
2023-01-22T03:26:19.000Z,0.61
2023-01-22T03:27:19.000Z,0.57
2023-01-22T03:28:19.000Z,0.60
2023-01-22T03:29:19.000Z,0.60
2023-01-22T03:30:19.000Z,0.60
2023-01-22T03:31:19.000Z,0.58
2023-01-22T03:32:19.000Z,0.61
2023-01-22T03:33:19.000Z,0.58
2023-01-22T03:34:19.000Z,0.53
2023-01-22T03:35:19.000Z,0.58
2023-01-22T03:36:19.000Z,0.57
2023-01-22T03:37:19.000Z,0.60
2023-01-22T03:38:19.000Z,0.58
2023-01-22T03:39:19.000Z,0.57
2023-01-22T03:40:19.000Z,0.58
2023-01-22T03:41:19.000Z,0.57
2023-01-22T03:42:19.000Z,0.57
2023-01-22T03:43:19.000Z,0.58
2023-01-22T03:44:19.000Z,0.53
2023-01-22T03:45:19.000Z,0.58
2023-01-22T03:46:19.000Z,0.60
2023-01-22T03:47:19.000Z,0.57
2023-01-22T03:48:19.000Z,0.58
2023-01-22T03:49:19.000Z,0.52
2023-01-22T03:50:19.000Z,0.58
2023-01-22T03:51:19.000Z,0.57
2023-01-22T03:52:19.000Z,0.57
2023-01-22T03:53:19.000Z,0.57
2023-01-22T03:54:19.000Z,0.57
2023-01-22T03:55:19.000Z,0.51
2023-01-22T03:56:19.000Z,0.57
2023-01-22T03:57:19.000Z,0.57
2023-01-22T03:58:19.000Z,0.53
2023-01-22T03:59:19.000Z,0.58
2023-01-22T04:00:19.000Z,0.53
2023-01-22T04:01:19.000Z,0.60
2023-01-22T04:02:19.000Z,0.53
2023-01-22T04:03:19.000Z,0.57
2023-01-22T04:04:19.000Z,0.58
2023-01-22T04:05:19.000Z,0.57
2023-01-22T04:06:19.000Z,0.57
2023-01-22T04:07:19.000Z,0.58
2023-01-22T04:08:19.000Z,0.52
2023-01-22T04:09:19.000Z,0.53
2023-01-22T04:10:19.000Z,0.52
2023-01-22T04:11:19.000Z,0.52
2023-01-22T04:12:19.000Z,0.57
2023-01-22T04:13:19.000Z,0.57
2023-01-22T04:14:19.000Z,0.57
2023-01-22T04:15:19.000Z,0.57
2023-01-22T04:16:19.000Z,0.52
2023-01-22T04:17:19.000Z,0.57
2023-01-22T04:18:19.000Z,0.52
2023-01-22T04:19:19.000Z,0.52
2023-01-22T04:20:19.000Z,0.52
2023-01-22T04:21:19.000Z,0.53
2023-01-22T04:22:19.000Z,0.53
2023-01-22T04:23:19.000Z,0.52
2023-01-22T04:24:19.000Z,0.58
2023-01-22T04:25:19.000Z,0.57
2023-01-22T04:26:19.000Z,0.53
2023-01-22T04:27:19.000Z,0.57
2023-01-22T04:28:19.000Z,0.53
2023-01-22T04:29:19.000Z,0.53
2023-01-22T04:30:19.000Z,0.51
2023-01-22T04:31:19.000Z,0.52
2023-01-22T04:32:19.000Z,0.52
2023-01-22T04:33:19.000Z,0.51
2023-01-22T04:34:19.000Z,0.52
2023-01-22T04:35:19.000Z,0.53
2023-01-22T04:36:19.000Z,0.52
2023-01-22T04:37:19.000Z,0.53
2023-01-22T04:38:20.000Z,0.58
2023-01-22T04:39:20.000Z,0.53
2023-01-22T04:40:20.000Z,0.52
2023-01-22T04:41:20.000Z,0.53
2023-01-22T04:42:20.000Z,0.57
2023-01-22T04:43:20.000Z,0.57
2023-01-22T04:44:20.000Z,0.52
2023-01-22T04:45:20.000Z,0.53
2023-01-22T04:46:20.000Z,0.52
2023-01-22T04:47:20.000Z,0.57
2023-01-22T04:48:20.000Z,0.52
2023-01-22T04:49:20.000Z,0.53
2023-01-22T04:50:20.000Z,0.52
2023-01-22T04:51:20.000Z,0.51
2023-01-22T04:52:20.000Z,0.57
2023-01-22T04:53:20.000Z,0.57
2023-01-22T04:54:20.000Z,0.52
2023-01-22T04:55:20.000Z,0.51
2023-01-22T04:56:20.000Z,0.53
2023-01-22T04:57:20.000Z,0.57
2023-01-22T04:58:20.000Z,0.57
2023-01-22T04:59:20.000Z,0.61
2023-01-22T05:00:20.000Z,0.57
2023-01-22T05:01:20.000Z,0.52
2023-01-22T05:02:20.000Z,0.53
2023-01-22T05:03:20.000Z,0.52
2023-01-22T05:04:20.000Z,0.53
2023-01-22T05:05:20.000Z,0.52
2023-01-22T05:06:20.000Z,0.51
2023-01-22T05:07:20.000Z,0.53
2023-01-22T05:08:20.000Z,0.51
2023-01-22T05:09:20.000Z,0.52
2023-01-22T05:10:20.000Z,0.49
2023-01-22T05:11:20.000Z,0.52
2023-01-22T05:12:20.000Z,0.48
2023-01-22T05:13:20.000Z,0.51
2023-01-22T05:14:20.000Z,0.51
2023-01-22T05:15:20.000Z,0.57
2023-01-22T05:16:20.000Z,0.52
2023-01-22T05:17:20.000Z,0.51
2023-01-22T05:18:20.000Z,0.52
2023-01-22T05:19:20.000Z,0.53
2023-01-22T05:20:20.000Z,0.52
2023-01-22T05:21:20.000Z,0.51
2023-01-22T05:22:20.000Z,0.51
2023-01-22T05:23:20.000Z,0.53
2023-01-22T05:24:20.000Z,0.52
2023-01-22T05:25:20.000Z,0.51
2023-01-22T05:26:20.000Z,0.49
2023-01-22T05:27:20.000Z,0.51
2023-01-22T05:28:20.000Z,0.46
2023-01-22T05:29:20.000Z,0.49
2023-01-22T05:30:20.000Z,0.48
2023-01-22T05:31:20.000Z,0.49
2023-01-22T05:32:20.000Z,0.48
2023-01-22T05:33:20.000Z,0.49
2023-01-22T05:34:20.000Z,0.52
2023-01-22T05:35:20.000Z,0.48
2023-01-22T05:36:20.000Z,0.49
2023-01-22T05:37:20.000Z,0.51
2023-01-22T05:38:20.000Z,0.48
2023-01-22T05:39:20.000Z,0.46
2023-01-22T05:40:20.000Z,0.48
2023-01-22T05:41:20.000Z,0.49
2023-01-22T05:42:20.000Z,0.49
2023-01-22T05:43:20.000Z,0.48
2023-01-22T05:44:20.000Z,0.49
2023-01-22T05:45:20.000Z,0.51
2023-01-22T05:46:20.000Z,0.51
2023-01-22T05:47:20.000Z,0.46
2023-01-22T05:48:20.000Z,0.51
2023-01-22T05:49:20.000Z,0.51
2023-01-22T05:50:20.000Z,0.48
2023-01-22T05:51:20.000Z,0.49
2023-01-22T05:52:20.000Z,0.49
2023-01-22T05:53:20.000Z,0.49
2023-01-22T05:54:20.000Z,0.48
2023-01-22T05:55:20.000Z,0.49
2023-01-22T05:56:20.000Z,0.52
2023-01-22T05:57:20.000Z,0.51
2023-01-22T05:58:20.000Z,0.52
2023-01-22T05:59:20.000Z,0.52
2023-01-22T06:00:20.000Z,0.53
2023-01-22T06:01:20.000Z,0.51
2023-01-22T06:02:20.000Z,0.51
2023-01-22T06:03:20.000Z,0.51
2023-01-22T06:04:20.000Z,0.52
2023-01-22T06:05:20.000Z,0.51
2023-01-22T06:06:20.000Z,0.49
2023-01-22T06:07:20.000Z,0.52
2023-01-22T06:08:20.000Z,0.49
2023-01-22T06:09:20.000Z,0.52
2023-01-22T06:10:20.000Z,0.51
2023-01-22T06:11:20.000Z,0.49
2023-01-22T06:12:20.000Z,0.48
2023-01-22T06:13:20.000Z,0.46
2023-01-22T06:14:20.000Z,0.52
2023-01-22T06:15:20.000Z,0.46
2023-01-22T06:16:20.000Z,0.51
2023-01-22T06:17:20.000Z,0.51
2023-01-22T06:18:20.000Z,0.51
2023-01-22T06:19:20.000Z,0.51
2023-01-22T06:20:20.000Z,0.48
2023-01-22T06:21:20.000Z,0.49
2023-01-22T06:22:20.000Z,0.51
2023-01-22T06:23:20.000Z,0.53
2023-01-22T06:24:20.000Z,0.51
2023-01-22T06:25:20.000Z,0.51
2023-01-22T06:26:20.000Z,0.52
2023-01-22T06:27:20.000Z,0.51
2023-01-22T06:28:20.000Z,0.52
2023-01-22T06:29:20.000Z,0.51
2023-01-22T06:30:20.000Z,0.51
2023-01-22T06:31:20.000Z,0.51
2023-01-22T06:32:20.000Z,0.51
2023-01-22T06:33:21.000Z,0.53
2023-01-22T06:34:21.000Z,0.52
2023-01-22T06:35:21.000Z,0.57
2023-01-22T06:36:21.000Z,0.52
2023-01-22T06:37:21.000Z,0.51
2023-01-22T06:38:21.000Z,0.49
2023-01-22T06:39:21.000Z,0.49
2023-01-22T06:40:21.000Z,0.49
2023-01-22T06:41:21.000Z,0.48
2023-01-22T06:42:21.000Z,0.48
2023-01-22T06:43:21.000Z,0.49
2023-01-22T06:44:21.000Z,0.51
2023-01-22T06:45:21.000Z,0.49
2023-01-22T06:46:21.000Z,0.49
2023-01-22T06:47:21.000Z,0.51
2023-01-22T06:48:21.000Z,0.49
2023-01-22T06:49:21.000Z,0.51
2023-01-22T06:50:21.000Z,0.46
2023-01-22T06:51:21.000Z,0.48
2023-01-22T06:52:21.000Z,0.49
2023-01-22T06:53:21.000Z,0.49
2023-01-22T06:54:21.000Z,0.48
2023-01-22T06:55:21.000Z,0.46
2023-01-22T06:56:21.000Z,0.51
2023-01-22T06:57:21.000Z,0.51
2023-01-22T06:58:21.000Z,0.51
2023-01-22T06:59:21.000Z,0.52
2023-01-22T07:00:21.000Z,0.52
2023-01-22T07:01:21.000Z,0.57
2023-01-22T07:02:21.000Z,0.51
2023-01-22T07:03:21.000Z,0.52
2023-01-22T07:04:21.000Z,0.57
2023-01-22T07:05:21.000Z,0.52
2023-01-22T07:06:21.000Z,0.51
2023-01-22T07:07:21.000Z,0.57
2023-01-22T07:08:21.000Z,0.53
2023-01-22T07:09:21.000Z,0.53
2023-01-22T07:10:21.000Z,0.49
2023-01-22T07:11:21.000Z,0.51
2023-01-22T07:12:21.000Z,0.53
2023-01-22T07:13:21.000Z,0.52
2023-01-22T07:14:21.000Z,0.52
2023-01-22T07:15:21.000Z,0.52
2023-01-22T07:16:21.000Z,0.51
2023-01-22T07:17:21.000Z,0.52
2023-01-22T07:18:21.000Z,0.48
2023-01-22T07:19:21.000Z,0.52
2023-01-22T07:20:21.000Z,0.52
2023-01-22T07:21:21.000Z,0.53
2023-01-22T07:22:21.000Z,0.53
2023-01-22T07:23:21.000Z,0.58
2023-01-22T07:24:21.000Z,0.48
2023-01-22T07:25:21.000Z,0.51
2023-01-22T07:26:21.000Z,0.51
2023-01-22T07:27:21.000Z,0.53
2023-01-22T07:28:21.000Z,0.53
2023-01-22T07:29:21.000Z,0.52
2023-01-22T07:30:21.000Z,0.53
2023-01-22T07:31:21.000Z,0.57
2023-01-22T07:32:21.000Z,0.58
2023-01-22T07:33:21.000Z,0.57
2023-01-22T07:34:21.000Z,0.53
2023-01-22T07:35:21.000Z,0.52
2023-01-22T07:36:21.000Z,0.52
2023-01-22T07:37:21.000Z,0.53
2023-01-22T07:38:21.000Z,0.57
2023-01-22T07:39:21.000Z,0.53
2023-01-22T07:40:21.000Z,0.57
2023-01-22T07:41:21.000Z,0.53
2023-01-22T07:42:21.000Z,0.57
2023-01-22T07:43:21.000Z,0.57
2023-01-22T07:44:21.000Z,0.60
2023-01-22T07:45:21.000Z,0.61
2023-01-22T07:46:21.000Z,0.58
2023-01-22T07:47:21.000Z,0.58
2023-01-22T07:48:21.000Z,0.52
2023-01-22T07:49:21.000Z,0.60
2023-01-22T07:50:21.000Z,0.60
2023-01-22T07:51:21.000Z,0.62
2023-01-22T07:52:21.000Z,0.57
2023-01-22T07:53:21.000Z,0.58
2023-01-22T07:54:21.000Z,0.60
2023-01-22T07:55:21.000Z,0.60
2023-01-22T07:56:21.000Z,0.58
2023-01-22T07:57:21.000Z,0.62
2023-01-22T07:58:21.000Z,0.61
2023-01-22T07:59:21.000Z,0.64
2023-01-22T08:00:21.000Z,0.62
2023-01-22T08:01:21.000Z,0.60
2023-01-22T08:02:21.000Z,0.60
2023-01-22T08:03:21.000Z,0.61
2023-01-22T08:04:21.000Z,0.61
2023-01-22T08:05:21.000Z,0.64
2023-01-22T08:06:21.000Z,0.58
2023-01-22T08:07:21.000Z,0.62
2023-01-22T08:08:21.000Z,0.61
2023-01-22T08:09:21.000Z,0.65
2023-01-22T08:10:21.000Z,0.64
2023-01-22T08:11:21.000Z,0.61
2023-01-22T08:12:21.000Z,0.61
2023-01-22T08:13:21.000Z,0.62
2023-01-22T08:14:21.000Z,0.62
2023-01-22T08:15:21.000Z,0.61
2023-01-22T08:16:21.000Z,0.64
2023-01-22T08:17:21.000Z,0.64
2023-01-22T08:18:22.000Z,0.62
2023-01-22T08:19:22.000Z,0.61
2023-01-22T08:20:22.000Z,0.65
2023-01-22T08:21:22.000Z,0.65
2023-01-22T08:22:22.000Z,0.70
2023-01-22T08:23:22.000Z,0.65
2023-01-22T08:24:22.000Z,0.70
2023-01-22T08:25:22.000Z,0.65
2023-01-22T08:26:22.000Z,0.64
2023-01-22T08:27:22.000Z,0.62
2023-01-22T08:28:22.000Z,0.64
2023-01-22T08:29:22.000Z,0.65
2023-01-22T08:30:22.000Z,0.61
2023-01-22T08:31:22.000Z,0.65
2023-01-22T08:32:22.000Z,0.61
2023-01-22T08:33:22.000Z,0.62
2023-01-22T08:34:22.000Z,0.68
2023-01-22T08:35:22.000Z,0.64
2023-01-22T08:36:22.000Z,0.67
2023-01-22T08:37:22.000Z,0.68
2023-01-22T08:38:22.000Z,0.67
2023-01-22T08:39:22.000Z,0.67
2023-01-22T08:40:22.000Z,0.65
2023-01-22T08:41:22.000Z,0.65
2023-01-22T08:42:22.000Z,0.68
2023-01-22T08:43:22.000Z,0.68
2023-01-22T08:44:22.000Z,0.67
2023-01-22T08:45:22.000Z,0.68
2023-01-22T08:46:22.000Z,0.70
2023-01-22T08:47:22.000Z,0.65
2023-01-22T08:48:22.000Z,0.67
2023-01-22T08:49:22.000Z,0.68
2023-01-22T08:50:22.000Z,0.68
2023-01-22T08:51:22.000Z,0.67
2023-01-22T08:52:22.000Z,0.67
2023-01-22T08:53:22.000Z,0.67
2023-01-22T08:54:22.000Z,0.64
2023-01-22T08:55:22.000Z,0.68
2023-01-22T08:56:22.000Z,0.68
2023-01-22T08:57:22.000Z,0.71
2023-01-22T08:58:22.000Z,0.65
2023-01-22T08:59:22.000Z,0.71
2023-01-22T09:00:22.000Z,0.71
2023-01-22T09:01:22.000Z,0.71
2023-01-22T09:02:22.000Z,0.71
2023-01-22T09:03:22.000Z,0.72
2023-01-22T09:04:22.000Z,0.71
2023-01-22T09:05:22.000Z,0.75
2023-01-22T09:06:22.000Z,0.71
2023-01-22T09:07:22.000Z,0.75
2023-01-22T09:08:22.000Z,0.72
2023-01-22T09:09:22.000Z,0.72
2023-01-22T09:10:22.000Z,0.72
2023-01-22T09:11:22.000Z,0.70
2023-01-22T09:12:22.000Z,0.71
2023-01-22T09:13:22.000Z,0.75
2023-01-22T09:14:22.000Z,0.75
2023-01-22T09:15:22.000Z,0.75
2023-01-22T09:16:22.000Z,0.75
2023-01-22T09:17:22.000Z,0.78
2023-01-22T09:18:22.000Z,0.80
2023-01-22T09:19:22.000Z,0.79
2023-01-22T09:20:22.000Z,0.76
2023-01-22T09:21:22.000Z,0.75
2023-01-22T09:22:22.000Z,0.72
2023-01-22T09:23:22.000Z,0.78
2023-01-22T09:24:22.000Z,0.76
2023-01-22T09:25:22.000Z,0.79
2023-01-22T09:26:22.000Z,0.75
2023-01-22T09:27:22.000Z,0.79
2023-01-22T09:28:22.000Z,0.78
2023-01-22T09:29:22.000Z,0.79
2023-01-22T09:30:22.000Z,0.75
2023-01-22T09:31:22.000Z,0.76
2023-01-22T09:32:22.000Z,0.75
2023-01-22T09:33:22.000Z,0.80
2023-01-22T09:34:22.000Z,0.76
2023-01-22T09:35:22.000Z,0.78
2023-01-22T09:36:22.000Z,0.76
2023-01-22T09:37:22.000Z,0.78
2023-01-22T09:38:22.000Z,0.78
2023-01-22T09:39:22.000Z,0.79
2023-01-22T09:40:22.000Z,0.80
2023-01-22T09:41:22.000Z,0.78
2023-01-22T09:42:22.000Z,0.76
2023-01-22T09:43:22.000Z,0.80
2023-01-22T09:44:22.000Z,0.83
2023-01-22T09:45:22.000Z,0.79
2023-01-22T09:46:22.000Z,0.76
2023-01-22T09:47:22.000Z,0.78
2023-01-22T09:48:22.000Z,0.79
2023-01-22T09:49:22.000Z,0.72
2023-01-22T09:50:22.000Z,0.72
2023-01-22T09:51:22.000Z,0.75
2023-01-22T09:52:22.000Z,0.75
2023-01-22T09:53:22.000Z,0.78
2023-01-22T09:54:22.000Z,0.80
2023-01-22T09:55:22.000Z,0.79
2023-01-22T09:56:22.000Z,0.76
2023-01-22T09:57:22.000Z,0.78
2023-01-22T09:58:22.000Z,0.78
2023-01-22T09:59:22.000Z,0.76
2023-01-22T10:00:22.000Z,0.78
2023-01-22T10:01:22.000Z,0.76
2023-01-22T10:02:22.000Z,0.72
2023-01-22T10:03:22.000Z,0.76
2023-01-22T10:04:22.000Z,0.78
2023-01-22T10:05:22.000Z,0.80
2023-01-22T10:06:22.000Z,0.78
2023-01-22T10:07:22.000Z,0.82
2023-01-22T10:08:22.000Z,0.79
2023-01-22T10:09:22.000Z,0.82
2023-01-22T10:10:22.000Z,0.80
2023-01-22T10:11:22.000Z,0.79
2023-01-22T10:12:22.000Z,0.78
2023-01-22T10:13:22.000Z,0.83
2023-01-22T10:14:22.000Z,0.80
2023-01-22T10:15:22.000Z,0.82
2023-01-22T10:16:22.000Z,0.85
2023-01-22T10:17:22.000Z,0.83
2023-01-22T10:18:22.000Z,0.83
2023-01-22T10:19:22.000Z,0.82
2023-01-22T10:20:22.000Z,0.80
2023-01-22T10:21:22.000Z,0.82
2023-01-22T10:22:22.000Z,0.79
2023-01-22T10:23:22.000Z,0.85
2023-01-22T10:24:22.000Z,0.82
2023-01-22T10:25:22.000Z,0.79
2023-01-22T10:26:22.000Z,0.82
2023-01-22T10:27:22.000Z,0.79
2023-01-22T10:28:22.000Z,0.82
2023-01-22T10:29:22.000Z,0.82
2023-01-22T10:30:22.000Z,0.82
2023-01-22T10:31:22.000Z,0.79
2023-01-22T10:32:22.000Z,0.82
2023-01-22T10:33:22.000Z,0.80
2023-01-22T10:34:22.000Z,0.83
2023-01-22T10:35:22.000Z,0.80
2023-01-22T10:36:22.000Z,0.79
2023-01-22T10:37:22.000Z,0.83
2023-01-22T10:38:22.000Z,0.80
2023-01-22T10:39:22.000Z,0.83
2023-01-22T10:40:22.000Z,0.86
2023-01-22T10:41:22.000Z,0.80
2023-01-22T10:42:22.000Z,0.83
2023-01-22T10:43:22.000Z,0.86
2023-01-22T10:44:22.000Z,0.86
2023-01-22T10:45:22.000Z,0.83
2023-01-22T10:46:22.000Z,0.83
2023-01-22T10:47:22.000Z,0.83
2023-01-22T10:48:22.000Z,0.82
2023-01-22T10:49:22.000Z,0.82
2023-01-22T10:50:22.000Z,0.83
2023-01-22T10:51:23.000Z,0.80
2023-01-22T10:52:23.000Z,0.82
2023-01-22T10:53:23.000Z,0.80
2023-01-22T10:54:23.000Z,0.82
2023-01-22T10:55:23.000Z,0.79
2023-01-22T10:56:23.000Z,0.79
2023-01-22T10:57:23.000Z,0.78
2023-01-22T10:58:23.000Z,0.79
2023-01-22T10:59:23.000Z,0.79
2023-01-22T11:00:23.000Z,0.80
2023-01-22T11:01:23.000Z,0.78
2023-01-22T11:02:23.000Z,0.76
2023-01-22T11:03:23.000Z,0.80
2023-01-22T11:04:23.000Z,0.82
2023-01-22T11:05:22.000Z,0.82
2023-01-22T11:06:22.000Z,0.79
2023-01-22T11:07:22.000Z,0.79
2023-01-22T11:08:23.000Z,0.80
2023-01-22T11:09:22.000Z,0.83
2023-01-22T11:10:23.000Z,0.85
2023-01-22T11:11:23.000Z,0.82
2023-01-22T11:12:23.000Z,0.85
2023-01-22T11:13:23.000Z,0.88
2023-01-22T11:14:23.000Z,0.86
2023-01-22T11:15:23.000Z,0.82
2023-01-22T11:16:23.000Z,0.80
2023-01-22T11:17:23.000Z,0.83
2023-01-22T11:18:23.000Z,0.80
2023-01-22T11:19:23.000Z,0.83
2023-01-22T11:20:23.000Z,0.79
2023-01-22T11:21:23.000Z,0.82
2023-01-22T11:22:23.000Z,0.78
2023-01-22T11:23:23.000Z,0.76
2023-01-22T11:24:23.000Z,0.79
2023-01-22T11:25:23.000Z,0.78
2023-01-22T11:26:23.000Z,0.79
2023-01-22T11:27:23.000Z,0.80
2023-01-22T11:28:23.000Z,0.82
2023-01-22T11:29:23.000Z,0.80
2023-01-22T11:30:23.000Z,0.79
2023-01-22T11:31:23.000Z,0.80
2023-01-22T11:32:23.000Z,0.83
2023-01-22T11:33:23.000Z,0.82
2023-01-22T11:34:23.000Z,0.83
2023-01-22T11:35:23.000Z,0.85
2023-01-22T11:36:23.000Z,0.88
2023-01-22T11:37:23.000Z,0.88
2023-01-22T11:38:23.000Z,0.83
2023-01-22T11:39:23.000Z,0.86
2023-01-22T11:40:23.000Z,0.86
2023-01-22T11:41:23.000Z,0.90
2023-01-22T11:42:23.000Z,0.88
2023-01-22T11:43:23.000Z,0.90
2023-01-22T11:44:23.000Z,0.85
2023-01-22T11:45:23.000Z,0.90
2023-01-22T11:46:23.000Z,0.92
2023-01-22T11:47:23.000Z,0.94
2023-01-22T11:48:23.000Z,0.97
2023-01-22T11:49:23.000Z,0.97
2023-01-22T11:50:23.000Z,0.97
2023-01-22T11:51:23.000Z,1.03
2023-01-22T11:52:23.000Z,0.98
2023-01-22T11:53:23.000Z,1.00
2023-01-22T11:54:23.000Z,1.04
2023-01-22T11:55:23.000Z,1.04
2023-01-22T11:56:23.000Z,1.07
2023-01-22T11:57:23.000Z,1.07
2023-01-22T12:20:33.000Z,1.06
2023-01-22T12:20:33.000Z,1.01
2023-01-22T12:21:33.000Z,1.03
2023-01-22T12:22:33.000Z,1.04
2023-01-22T12:23:33.000Z,1.04
2023-01-22T12:24:33.000Z,1.12
2023-01-22T12:25:33.000Z,1.06
2023-01-22T12:26:33.000Z,1.07
2023-01-22T12:27:33.000Z,1.10
2023-01-22T12:28:33.000Z,1.10
2023-01-22T12:29:33.000Z,1.06
2023-01-22T12:30:33.000Z,1.12
2023-01-22T12:31:33.000Z,1.12
2023-01-22T12:32:33.000Z,1.14
2023-01-22T12:33:33.000Z,1.15
2023-01-22T12:34:33.000Z,1.15
2023-01-22T12:35:33.000Z,1.16
2023-01-22T12:36:33.000Z,1.15
2023-01-22T12:37:33.000Z,1.16
2023-01-22T12:38:33.000Z,1.18
2023-01-22T12:39:33.000Z,1.15
2023-01-22T12:40:33.000Z,1.16
2023-01-22T12:41:33.000Z,1.19
2023-01-22T12:42:33.000Z,1.18
2023-01-22T12:43:33.000Z,1.18
2023-01-22T12:44:33.000Z,1.19
2023-01-22T12:45:33.000Z,1.16
2023-01-22T12:46:33.000Z,1.19
2023-01-22T12:47:33.000Z,1.22
2023-01-22T12:48:33.000Z,1.18
2023-01-22T12:49:33.000Z,1.19
2023-01-22T12:50:33.000Z,1.22
2023-01-22T12:51:33.000Z,1.18
2023-01-22T12:52:33.000Z,1.21
2023-01-22T12:53:33.000Z,1.21
2023-01-22T12:54:33.000Z,1.25
2023-01-22T12:55:33.000Z,1.24
2023-01-22T12:56:33.000Z,1.22
2023-01-22T12:57:33.000Z,1.24
2023-01-22T12:58:33.000Z,1.25
2023-01-22T12:59:33.000Z,1.24
2023-01-22T13:00:33.000Z,1.24
2023-01-22T13:01:33.000Z,1.28
2023-01-22T13:02:33.000Z,1.24
2023-01-22T13:03:33.000Z,1.26
2023-01-22T13:04:33.000Z,1.24
2023-01-22T13:05:33.000Z,1.22
2023-01-22T13:06:33.000Z,1.24
2023-01-22T13:07:33.000Z,1.26
2023-01-22T13:08:33.000Z,1.24
2023-01-22T13:09:33.000Z,1.25
2023-01-22T13:10:33.000Z,1.26
2023-01-22T13:11:33.000Z,1.28
2023-01-22T13:12:33.000Z,1.29
2023-01-22T13:13:33.000Z,1.29
2023-01-22T13:14:33.000Z,1.29
2023-01-22T13:15:33.000Z,1.29
2023-01-22T13:16:33.000Z,1.32
2023-01-22T13:17:33.000Z,1.33
2023-01-22T13:18:33.000Z,1.39
2023-01-22T13:19:33.000Z,1.34
2023-01-22T13:20:33.000Z,1.36
2023-01-22T13:21:33.000Z,1.36
2023-01-22T13:22:33.000Z,1.42
2023-01-22T13:23:33.000Z,1.36
2023-01-22T13:24:33.000Z,1.36
2023-01-22T13:25:33.000Z,1.40
2023-01-22T13:26:33.000Z,1.32
2023-01-22T13:27:33.000Z,1.34
2023-01-22T13:28:33.000Z,1.32
2023-01-22T13:29:33.000Z,1.32
2023-01-22T13:30:33.000Z,1.34
2023-01-22T13:31:33.000Z,1.34
2023-01-22T13:32:33.000Z,1.33
2023-01-22T13:33:33.000Z,1.37
2023-01-22T13:34:33.000Z,1.34
2023-01-22T13:35:33.000Z,1.37
2023-01-22T13:36:33.000Z,1.37
2023-01-22T13:37:33.000Z,1.37
2023-01-22T13:38:33.000Z,1.34
2023-01-22T13:39:33.000Z,1.32